NORTHEAST SUFFOLK  -  Rip Current Statement Rip Current Statement        NORTHERN NASSAU  -  Rip Current Statement Rip Current Statement        NORTHERN QUEENS  -  Rip Current Statement Rip Current Statement        NORTHWEST SUFFOLK  -  Rip Current Statement Rip Current Statement        SOUTHEAST SUFFOLK  -  Rip Current Statement Rip Current Statement        SOUTHERN NASSAU  -  Rip Current Statement Rip Current Statement        SOUTHERN QUEENS  -  Rip Current Statement Rip Current Statement        SOUTHWEST SUFFOLK  -  Rip Current Statement Rip Current Statement      

Active alerts

Northern Queens
  Details for Northern Queens Rip Current Statement
Southern Queens
  Details for Southern Queens Rip Current Statement
Northern Nassau
  Details for Northern Nassau Rip Current Statement
Southern Nassau
  Details for Southern Nassau Rip Current Statement
Northwest Suffolk
  Details for Northwest Suffolk Rip Current Statement
Southwest Suffolk
  Details for Southwest Suffolk Rip Current Statement
Northeast Suffolk
  Details for Northeast Suffolk Rip Current Statement
Southeast Suffolk
  Details for Southeast Suffolk Rip Current Statement


WXM80 ListenWXM80 Stop

You find our weather info also at:

UK Metoffice

WeatherCloud

Weather Underground

Northeastern Weather Network

AWEKAS

Citizen Weather Observer Program (CWOP)

HAMweather, WeatherForYou, PWS Weather


Weather Underground History page Text

Daily Summary for March 2, 2017 Units:  English    Metric   Both
« Previous Day
Next Day »
Daily Weekly Monthly Yearly Custom
  High: Low: Average:
Temperature: 62.6 °F 35.7 °F 47.1 °F
Dew Point: 53.2 °F 17.0 °F 28.7 °F
Humidity: 77 % 41 % 49 %
Wind Speed: 17.3 mph 2.9 mph 9.1 mph
Wind Gust: 35.0 mph - -
Wind:- - West
Pressure: 30.05 in 29.35 in -
Precipitation: 0.00 in    
Historical Graphs
 
 
Tabular Data for March 2, 2017
Time Temperature Dew Point Pressure Wind Wind Speed Wind Gust Humidity Rainfall Rate (Hourly)
00:01 59.1 °F 51.9 °F 29.36 in SSW 5.3 mph 11.5 mph 77 % 0.00 in
00:07 59.1 °F 51.9 °F 29.36 in SW 4.3 mph 15.0 mph 77 % 0.00 in
00:12 59.1 °F 51.9 °F 29.37 in SSW 3.5 mph 8.1 mph 77 % 0.00 in
00:17 59.1 °F 51.9 °F 29.37 in West 4.9 mph 9.2 mph 77 % 0.00 in
00:22 59.1 °F 51.9 °F 29.36 in SW 7.9 mph 10.4 mph 77 % 0.00 in
00:27 59.2 °F 52.0 °F 29.36 in SSW 7.2 mph 11.5 mph 77 % 0.00 in
00:32 59.3 °F 52.1 °F 29.36 in SW 7.3 mph 8.0 mph 77 % 0.00 in
00:37 59.4 °F 52.2 °F 29.36 in SSW 5.5 mph 11.5 mph 77 % 0.00 in
00:42 59.6 °F 52.4 °F 29.37 in WSW 8.6 mph 13.0 mph 77 % 0.00 in
00:43 59.7 °F 52.4 °F 29.37 in SW 9.0 mph 14.0 mph 77 % 0.00 in
00:48 60.0 °F 52.8 °F 29.37 in SW 7.0 mph 14.0 mph 77 % 0.00 in
00:53 60.3 °F 53.1 °F 29.37 in SW 6.0 mph 18.0 mph 77 % 0.00 in
00:58 60.7 °F 53.1 °F 29.36 in SW 7.5 mph 11.0 mph 76 % 0.00 in
01:03 61.0 °F 53.0 °F 29.36 in WSW 5.9 mph 9.2 mph 75 % 0.00 in
01:08 61.3 °F 52.9 °F 29.36 in WSW 8.2 mph 15.0 mph 74 % 0.00 in
01:13 61.6 °F 53.2 °F 29.36 in South 8.2 mph 12.0 mph 74 % 0.00 in
01:18 61.9 °F 53.1 °F 29.36 in WSW 5.9 mph 11.5 mph 73 % 0.00 in
01:23 62.1 °F 53.0 °F 29.35 in SW 6.7 mph 13.8 mph 72 % 0.00 in
01:29 62.1 °F 53.0 °F 29.36 in SW 5.9 mph 12.7 mph 72 % 0.00 in
01:34 62.2 °F 52.7 °F 29.36 in SW 5.8 mph 16.1 mph 71 % 0.00 in
01:39 62.2 °F 52.7 °F 29.35 in SW 8.5 mph 13.8 mph 71 % 0.00 in
01:44 62.3 °F 52.8 °F 29.35 in SSW 9.5 mph 17.3 mph 71 % 0.00 in
01:49 62.4 °F 52.9 °F 29.35 in WSW 5.5 mph 15.0 mph 71 % 0.00 in
01:54 62.5 °F 52.6 °F 29.35 in West 10.0 mph 13.8 mph 70 % 0.00 in
01:59 62.6 °F 52.7 °F 29.36 in WNW 6.7 mph 11.5 mph 70 % 0.00 in
02:04 62.4 °F 50.9 °F 29.37 in West 8.9 mph 19.6 mph 66 % 0.00 in
02:09 61.9 °F 50.4 °F 29.36 in West 13.4 mph 24.2 mph 66 % 0.00 in
02:14 61.2 °F 50.2 °F 29.36 in West 4.8 mph 15.0 mph 67 % 0.00 in
02:19 60.6 °F 50.0 °F 29.36 in WNW 5.6 mph 10.4 mph 68 % 0.00 in
02:24 60.0 °F 50.2 °F 29.36 in West 7.1 mph 12.7 mph 70 % 0.00 in
02:30 59.6 °F 50.2 °F 29.36 in SW 6.8 mph 11.5 mph 71 % 0.00 in
02:35 59.3 °F 50.3 °F 29.36 in WNW 7.3 mph 9.2 mph 72 % 0.00 in
02:40 58.9 °F 49.9 °F 29.36 in SSW 10.7 mph 13.8 mph 72 % 0.00 in
02:45 58.7 °F 49.7 °F 29.36 in NW 5.9 mph 9.2 mph 72 % 0.00 in
02:50 58.5 °F 49.1 °F 29.36 in NW 6.9 mph 12.7 mph 71 % 0.00 in
02:55 58.4 °F 49.0 °F 29.36 in WSW 5.3 mph 15.0 mph 71 % 0.00 in
03:00 58.3 °F 48.6 °F 29.37 in West 7.0 mph 16.1 mph 70 % 0.00 in
03:05 58.2 °F 48.1 °F 29.36 in SW 5.6 mph 11.5 mph 69 % 0.00 in
03:10 58.1 °F 48.0 °F 29.36 in SSW 8.4 mph 18.4 mph 69 % 0.00 in
03:15 57.9 °F 47.8 °F 29.36 in SW 5.0 mph 11.5 mph 69 % 0.00 in
03:20 57.8 °F 45.7 °F 29.37 in West 7.5 mph 16.0 mph 64 % 0.00 in
03:25 57.8 °F 43.6 °F 29.37 in SSW 13.5 mph 23.0 mph 59 % 0.00 in
03:30 57.8 °F 42.2 °F 29.37 in WSW 10.5 mph 20.7 mph 56 % 0.00 in
03:36 57.7 °F 42.1 °F 29.37 in West 7.6 mph 11.5 mph 56 % 0.00 in
03:41 57.5 °F 42.8 °F 29.38 in West 7.1 mph 11.5 mph 58 % 0.00 in
03:46 57.3 °F 43.5 °F 29.38 in WSW 11.5 mph 19.6 mph 60 % 0.00 in
03:51 57.1 °F 43.3 °F 29.39 in West 7.2 mph 15.0 mph 60 % 0.00 in
03:56 56.8 °F 42.2 °F 29.39 in WNW 11.1 mph 15.0 mph 58 % 0.00 in
04:01 56.4 °F 41.3 °F 29.39 in WNW 7.8 mph 9.2 mph 57 % 0.00 in
04:06 56.0 °F 41.0 °F 29.40 in West 7.2 mph 16.1 mph 57 % 0.00 in
04:11 55.5 °F 39.6 °F 29.41 in West 8.7 mph 17.0 mph 55 % 0.00 in
04:13 55.4 °F 39.0 °F 29.41 in WNW 7.0 mph 18.4 mph 54 % 0.00 in
04:18 54.9 °F 36.1 °F 29.41 in WSW 7.8 mph 17.3 mph 49 % 0.00 in
04:23 54.6 °F 35.3 °F 29.41 in WSW 13.0 mph 23.0 mph 48 % 0.00 in
04:28 54.2 °F 34.9 °F 29.41 in West 12.0 mph 21.0 mph 48 % 0.00 in
04:33 53.9 °F 33.6 °F 29.42 in West 12.0 mph 24.0 mph 46 % 0.00 in
04:38 53.5 °F 33.8 °F 29.42 in WSW 12.0 mph 22.0 mph 47 % 0.00 in
04:43 53.2 °F 32.9 °F 29.42 in West 15.0 mph 26.0 mph 46 % 0.00 in
04:48 53.1 °F 32.8 °F 29.43 in West 10.0 mph 31.0 mph 46 % 0.00 in
04:53 52.8 °F 32.6 °F 29.43 in West 16.0 mph 35.0 mph 46 % 0.00 in
04:58 52.5 °F 33.9 °F 29.44 in WNW 10.1 mph 15.0 mph 49 % 0.00 in
05:03 52.0 °F 33.9 °F 29.44 in West 8.4 mph 16.1 mph 50 % 0.00 in
05:08 51.5 °F 33.0 °F 29.44 in West 8.9 mph 18.4 mph 49 % 0.00 in
05:13 51.1 °F 31.6 °F 29.43 in WSW 10.7 mph 19.6 mph 47 % 0.00 in
05:18 50.9 °F 30.8 °F 29.44 in SW 15.9 mph 26.5 mph 46 % 0.00 in
05:23 50.7 °F 30.1 °F 29.44 in West 13.3 mph 27.0 mph 45 % 0.00 in
05:29 50.6 °F 30.6 °F 29.44 in West 9.8 mph 17.3 mph 46 % 0.00 in
05:34 50.5 °F 30.5 °F 29.44 in WNW 7.3 mph 12.7 mph 46 % 0.00 in
05:39 50.4 °F 31.9 °F 29.45 in WSW 9.6 mph 18.4 mph 49 % 0.00 in
05:44 50.1 °F 32.7 °F 29.45 in SW 10.5 mph 13.8 mph 51 % 0.00 in
05:49 50.0 °F 32.1 °F 29.45 in West 12.6 mph 18.4 mph 50 % 0.00 in
05:54 49.9 °F 32.0 °F 29.46 in SW 6.4 mph 11.5 mph 50 % 0.00 in
05:59 49.7 °F 31.3 °F 29.47 in West 15.0 mph 30.0 mph 49 % 0.00 in
06:04 49.7 °F 30.8 °F 29.46 in WSW 11.3 mph 20.7 mph 48 % 0.00 in
06:09 49.7 °F 30.3 °F 29.47 in SW 9.6 mph 18.0 mph 47 % 0.00 in
06:14 49.6 °F 30.2 °F 29.47 in WSW 7.4 mph 14.0 mph 47 % 0.00 in
06:19 49.5 °F 30.6 °F 29.47 in WNW 9.3 mph 16.1 mph 48 % 0.00 in
06:24 49.3 °F 29.9 °F 29.47 in WNW 9.4 mph 19.6 mph 47 % 0.00 in
06:29 49.1 °F 30.2 °F 29.47 in NW 6.8 mph 17.3 mph 48 % 0.00 in
06:35 49.0 °F 30.1 °F 29.48 in WNW 7.0 mph 18.4 mph 48 % 0.00 in
06:40 48.8 °F 30.5 °F 29.48 in WSW 8.1 mph 16.0 mph 49 % 0.00 in
06:45 48.7 °F 30.4 °F 29.48 in WSW 8.9 mph 20.7 mph 49 % 0.00 in
06:50 48.6 °F 30.8 °F 29.48 in West 15.2 mph 16.1 mph 50 % 0.00 in
06:55 48.7 °F 29.9 °F 29.49 in WSW 9.8 mph 25.3 mph 48 % 0.00 in
07:00 48.8 °F 30.5 °F 29.49 in SW 15.1 mph 24.2 mph 49 % 0.00 in
07:05 48.9 °F 30.1 °F 29.49 in West 10.5 mph 27.6 mph 48 % 0.00 in
07:10 48.9 °F 30.6 °F 29.49 in SW 13.0 mph 26.5 mph 49 % 0.00 in
07:15 49.0 °F 31.2 °F 29.49 in WSW 5.4 mph 25.3 mph 50 % 0.00 in
07:20 49.0 °F 30.7 °F 29.49 in West 11.6 mph 18.4 mph 49 % 0.00 in
07:25 49.0 °F 30.7 °F 29.50 in WNW 10.7 mph 18.4 mph 49 % 0.00 in
07:30 49.0 °F 30.1 °F 29.50 in WSW 11.7 mph 19.6 mph 48 % 0.00 in
07:35 49.0 °F 30.1 °F 29.51 in SW 10.8 mph 18.4 mph 48 % 0.00 in
07:41 49.0 °F 30.1 °F 29.51 in WNW 13.9 mph 18.4 mph 48 % 0.00 in
07:46 49.1 °F 30.2 °F 29.52 in SW 12.4 mph 18.0 mph 48 % 0.00 in
07:51 49.1 °F 30.2 °F 29.52 in WNW 13.3 mph 25.3 mph 48 % 0.00 in
07:56 49.2 °F 30.3 °F 29.53 in WSW 15.4 mph 21.9 mph 48 % 0.00 in
08:01 48.8 °F 30.0 °F 29.54 in WSW 16.2 mph 26.5 mph 48 % 0.00 in
08:06 48.5 °F 30.2 °F 29.54 in WSW 15.1 mph 26.5 mph 49 % 0.00 in
08:11 48.3 °F 29.0 °F 29.54 in SW 12.5 mph 24.2 mph 47 % 0.00 in
08:16 48.3 °F 29.5 °F 29.55 in SW 10.0 mph 20.7 mph 48 % 0.00 in
08:19 48.2 °F 28.9 °F 29.55 in SW 13.1 mph 18.0 mph 47 % 0.00 in
08:24 48.2 °F 28.9 °F 29.55 in West 9.4 mph 19.6 mph 47 % 0.00 in
08:29 48.2 °F 29.4 °F 29.55 in WNW 8.7 mph 13.8 mph 48 % 0.00 in
08:34 48.1 °F 29.3 °F 29.55 in SSW 17.3 mph 28.8 mph 48 % 0.00 in
08:39 47.7 °F 27.9 °F 29.56 in West 10.6 mph 25.3 mph 46 % 0.00 in
08:44 47.4 °F 27.6 °F 29.56 in WNW 12.1 mph 26.5 mph 46 % 0.00 in
08:49 47.4 °F 28.7 °F 29.57 in WSW 9.9 mph 18.4 mph 48 % 0.00 in
08:54 47.3 °F 27.5 °F 29.57 in SSW 10.9 mph 20.7 mph 46 % 0.00 in
08:59 47.4 °F 28.2 °F 29.57 in WNW 12.0 mph 18.4 mph 47 % 0.00 in
09:04 47.4 °F 27.6 °F 29.58 in WNW 14.3 mph 23.0 mph 46 % 0.00 in
09:09 47.3 °F 27.5 °F 29.58 in WSW 10.1 mph 20.7 mph 46 % 0.00 in
09:14 47.3 °F 27.0 °F 29.58 in WSW 15.4 mph 26.5 mph 45 % 0.00 in
09:20 47.3 °F 27.0 °F 29.59 in West 12.2 mph 21.9 mph 45 % 0.00 in
09:25 47.5 °F 27.2 °F 29.60 in West 12.9 mph 19.6 mph 45 % 0.00 in
09:30 47.6 °F 26.7 °F 29.60 in WNW 9.6 mph 20.7 mph 44 % 0.00 in
09:35 47.6 °F 26.2 °F 29.60 in WNW 11.0 mph 25.0 mph 43 % 0.00 in
09:40 47.5 °F 25.5 °F 29.60 in NNW 13.7 mph 24.2 mph 42 % 0.00 in
09:45 47.4 °F 26.0 °F 29.61 in NNW 11.5 mph 18.4 mph 43 % 0.00 in
09:50 47.3 °F 27.0 °F 29.61 in WNW 9.6 mph 20.7 mph 45 % 0.00 in
09:55 47.4 °F 26.6 °F 29.61 in WNW 9.6 mph 18.4 mph 44 % 0.00 in
10:00 47.7 °F 26.3 °F 29.62 in West 9.1 mph 16.1 mph 43 % 0.00 in
10:05 47.6 °F 26.2 °F 29.62 in WNW 9.0 mph 16.1 mph 43 % 0.00 in
10:11 47.3 °F 25.3 °F 29.63 in West 14.0 mph 31.1 mph 42 % 0.00 in
10:16 47.2 °F 25.3 °F 29.64 in SW 16.3 mph 26.5 mph 42 % 0.00 in
10:21 47.1 °F 24.6 °F 29.64 in WNW 9.2 mph 21.0 mph 41 % 0.00 in
10:26 46.9 °F 24.4 °F 29.64 in WNW 16.7 mph 32.2 mph 41 % 0.00 in
10:31 46.8 °F 24.9 °F 29.65 in WNW 12.1 mph 21.9 mph 42 % 0.00 in
10:36 46.7 °F 24.8 °F 29.65 in West 11.6 mph 31.1 mph 42 % 0.00 in
10:41 46.7 °F 25.4 °F 29.65 in SW 8.9 mph 25.3 mph 43 % 0.00 in
10:46 46.8 °F 24.9 °F 29.65 in WNW 9.8 mph 24.2 mph 42 % 0.00 in
10:51 46.9 °F 25.5 °F 29.65 in West 11.0 mph 26.5 mph 43 % 0.00 in
10:56 46.9 °F 25.0 °F 29.66 in West 10.5 mph 19.6 mph 42 % 0.00 in
11:01 47.1 °F 26.3 °F 29.66 in NW 8.9 mph 20.7 mph 44 % 0.00 in
11:06 47.0 °F 24.5 °F 29.67 in WNW 10.8 mph 15.0 mph 41 % 0.00 in
11:11 47.0 °F 25.1 °F 29.67 in WNW 11.4 mph 19.6 mph 42 % 0.00 in
11:16 46.9 °F 24.4 °F 29.67 in West 16.4 mph 25.3 mph 41 % 0.00 in
11:22 46.6 °F 24.7 °F 29.68 in NW 10.7 mph 18.4 mph 42 % 0.00 in
11:27 46.5 °F 24.6 °F 29.68 in West 12.0 mph 25.3 mph 42 % 0.00 in
11:32 46.6 °F 24.7 °F 29.68 in WNW 11.4 mph 20.7 mph 42 % 0.00 in
11:37 46.5 °F 24.0 °F 29.68 in West 16.9 mph 25.3 mph 41 % 0.00 in
11:42 46.3 °F 25.0 °F 29.69 in WNW 12.6 mph 23.0 mph 43 % 0.00 in
11:47 46.3 °F 25.6 °F 29.69 in NNW 14.9 mph 20.7 mph 44 % 0.00 in
11:52 46.4 °F 25.6 °F 29.68 in WNW 11.9 mph 18.4 mph 44 % 0.00 in
11:57 46.5 °F 26.3 °F 29.69 in WNW 11.7 mph 19.6 mph 45 % 0.00 in
12:02 46.7 °F 26.5 °F 29.69 in WNW 8.7 mph 16.0 mph 45 % 0.00 in
12:07 46.8 °F 25.5 °F 29.69 in NW 8.5 mph 20.7 mph 43 % 0.00 in
12:12 46.9 °F 26.1 °F 29.70 in WNW 9.0 mph 17.3 mph 44 % 0.00 in
12:17 47.0 °F 26.2 °F 29.70 in West 9.2 mph 21.9 mph 44 % 0.00 in
12:23 47.1 °F 26.3 °F 29.70 in WNW 11.4 mph 20.7 mph 44 % 0.00 in
12:28 47.1 °F 25.7 °F 29.70 in NW 9.5 mph 26.5 mph 43 % 0.00 in
12:33 47.1 °F 25.7 °F 29.70 in WNW 11.5 mph 23.0 mph 43 % 0.00 in
12:38 47.0 °F 25.1 °F 29.71 in NW 6.9 mph 21.9 mph 42 % 0.00 in
12:43 46.7 °F 24.8 °F 29.71 in WNW 9.0 mph 17.3 mph 42 % 0.00 in
12:48 46.7 °F 25.9 °F 29.71 in WSW 9.7 mph 16.1 mph 44 % 0.00 in
12:53 46.7 °F 25.4 °F 29.72 in NW 7.5 mph 19.6 mph 43 % 0.00 in
12:58 46.6 °F 25.3 °F 29.72 in West 11.0 mph 19.6 mph 43 % 0.00 in
13:03 46.4 °F 25.1 °F 29.72 in WNW 12.0 mph 23.0 mph 43 % 0.00 in
13:08 46.4 °F 25.6 °F 29.72 in WNW 12.0 mph 21.0 mph 44 % 0.00 in
13:13 46.3 °F 24.4 °F 29.72 in WNW 8.0 mph 21.0 mph 42 % 0.00 in
13:18 46.5 °F 25.2 °F 29.72 in WNW 9.0 mph 21.0 mph 43 % 0.00 in
13:23 46.5 °F 24.6 °F 29.72 in WNW 13.0 mph 26.0 mph 42 % 0.00 in
13:28 46.2 °F 25.0 °F 29.72 in NW 8.0 mph 22.0 mph 43 % 0.00 in
13:33 46.3 °F 25.0 °F 29.72 in WNW 8.0 mph 20.0 mph 43 % 0.00 in
13:38 46.3 °F 25.0 °F 29.73 in WNW 8.2 mph 13.8 mph 43 % 0.00 in
13:43 46.5 °F 25.2 °F 29.73 in WNW 12.0 mph 25.0 mph 43 % 0.00 in
13:48 46.4 °F 25.7 °F 29.74 in WNW 9.0 mph 20.0 mph 44 % 0.00 in
13:53 46.4 °F 25.6 °F 29.75 in WNW 10.0 mph 20.0 mph 44 % 0.00 in
13:58 46.3 °F 25.0 °F 29.75 in WNW 11.3 mph 19.6 mph 43 % 0.00 in
14:03 46.1 °F 23.7 °F 29.75 in NW 13.3 mph 21.9 mph 41 % 0.00 in
14:08 45.8 °F 24.0 °F 29.75 in NW 12.2 mph 19.6 mph 42 % 0.00 in
14:13 45.8 °F 24.5 °F 29.75 in WNW 11.6 mph 20.7 mph 43 % 0.00 in
14:18 45.8 °F 24.5 °F 29.76 in WNW 8.1 mph 17.3 mph 43 % 0.00 in
14:23 45.8 °F 25.1 °F 29.76 in NNW 6.4 mph 13.8 mph 44 % 0.00 in
14:29 45.8 °F 25.6 °F 29.76 in WNW 8.7 mph 14.0 mph 45 % 0.00 in
14:34 45.6 °F 24.9 °F 29.76 in WNW 8.7 mph 21.9 mph 44 % 0.00 in
14:39 45.4 °F 24.2 °F 29.76 in NNW 10.5 mph 17.3 mph 43 % 0.00 in
14:44 45.4 °F 24.2 °F 29.77 in WNW 14.1 mph 25.0 mph 43 % 0.00 in
14:49 45.1 °F 23.9 °F 29.77 in WNW 14.1 mph 19.6 mph 43 % 0.00 in
14:54 44.8 °F 24.7 °F 29.77 in WNW 10.5 mph 16.1 mph 45 % 0.00 in
14:59 44.6 °F 23.5 °F 29.77 in NW 5.7 mph 20.7 mph 43 % 0.00 in
15:04 44.4 °F 23.3 °F 29.77 in WNW 12.3 mph 21.0 mph 43 % 0.00 in
15:09 44.2 °F 23.1 °F 29.78 in WNW 11.7 mph 18.4 mph 43 % 0.00 in
15:14 44.2 °F 23.1 °F 29.78 in WSW 11.9 mph 19.6 mph 43 % 0.00 in
15:19 44.0 °F 24.0 °F 29.79 in NW 10.0 mph 17.3 mph 45 % 0.00 in
15:24 44.0 °F 24.0 °F 29.79 in NNW 9.1 mph 14.0 mph 45 % 0.00 in
15:30 43.8 °F 23.3 °F 29.79 in NW 7.8 mph 12.7 mph 44 % 0.00 in
15:35 43.8 °F 23.3 °F 29.80 in NW 12.6 mph 23.0 mph 44 % 0.00 in
15:40 43.8 °F 23.8 °F 29.80 in WNW 8.9 mph 16.1 mph 45 % 0.00 in
15:45 43.7 °F 23.7 °F 29.80 in WNW 6.0 mph 16.1 mph 45 % 0.00 in
15:50 43.6 °F 22.5 °F 29.81 in WNW 9.5 mph 18.4 mph 43 % 0.00 in
15:55 43.5 °F 23.5 °F 29.81 in NW 7.6 mph 18.4 mph 45 % 0.00 in
16:00 43.4 °F 22.9 °F 29.82 in NW 6.5 mph 19.6 mph 44 % 0.00 in
16:05 43.2 °F 22.2 °F 29.82 in SW 9.5 mph 15.0 mph 43 % 0.00 in
16:10 43.1 °F 22.6 °F 29.82 in NW 11.9 mph 19.6 mph 44 % 0.00 in
16:15 43.0 °F 22.5 °F 29.82 in NW 5.6 mph 11.5 mph 44 % 0.00 in
16:20 42.9 °F 22.5 °F 29.82 in WNW 8.2 mph 17.3 mph 44 % 0.00 in
16:26 42.8 °F 22.4 °F 29.83 in WNW 7.5 mph 15.0 mph 44 % 0.00 in
16:31 42.7 °F 21.7 °F 29.83 in NW 10.8 mph 16.1 mph 43 % 0.00 in
16:36 42.6 °F 22.7 °F 29.83 in West 10.5 mph 18.4 mph 45 % 0.00 in
16:41 42.5 °F 23.2 °F 29.84 in NW 7.6 mph 11.5 mph 46 % 0.00 in
16:46 42.4 °F 23.1 °F 29.84 in WNW 10.6 mph 19.6 mph 46 % 0.00 in
16:51 42.3 °F 22.4 °F 29.85 in NW 7.9 mph 17.3 mph 45 % 0.00 in
16:56 42.2 °F 22.4 °F 29.84 in WNW 7.8 mph 15.0 mph 45 % 0.00 in
17:01 42.1 °F 23.3 °F 29.85 in NW 7.4 mph 17.0 mph 47 % 0.00 in
17:06 42.0 °F 22.7 °F 29.86 in West 9.5 mph 17.3 mph 46 % 0.00 in
17:11 41.9 °F 23.1 °F 29.86 in WNW 9.7 mph 17.3 mph 47 % 0.00 in
17:16 41.7 °F 21.4 °F 29.86 in NW 9.6 mph 13.0 mph 44 % 0.00 in
17:21 41.6 °F 20.7 °F 29.86 in West 10.3 mph 19.6 mph 43 % 0.00 in
17:27 41.5 °F 21.7 °F 29.87 in WSW 8.1 mph 13.8 mph 45 % 0.00 in
17:32 41.4 °F 21.1 °F 29.87 in WNW 9.6 mph 18.4 mph 44 % 0.00 in
17:37 41.4 °F 21.6 °F 29.88 in WNW 8.5 mph 18.4 mph 45 % 0.00 in
17:42 41.3 °F 21.0 °F 29.88 in NW 9.2 mph 14.0 mph 44 % 0.00 in
17:47 41.2 °F 19.8 °F 29.89 in NW 8.6 mph 13.8 mph 42 % 0.00 in
17:52 41.1 °F 20.3 °F 29.89 in NW 8.0 mph 18.4 mph 43 % 0.00 in
17:57 41.0 °F 19.1 °F 29.90 in NW 10.9 mph 19.6 mph 41 % 0.00 in
18:02 41.0 °F 19.1 °F 29.89 in NW 7.8 mph 16.1 mph 41 % 0.00 in
18:07 41.0 °F 19.6 °F 29.90 in WNW 10.6 mph 20.0 mph 42 % 0.00 in
18:12 40.9 °F 19.5 °F 29.90 in NW 8.1 mph 13.8 mph 42 % 0.00 in
18:17 40.9 °F 19.5 °F 29.90 in North 5.8 mph 11.5 mph 42 % 0.00 in
18:22 40.8 °F 20.0 °F 29.90 in NW 7.3 mph 13.8 mph 43 % 0.00 in
18:27 40.7 °F 19.9 °F 29.91 in NW 7.1 mph 10.4 mph 43 % 0.00 in
18:33 40.7 °F 20.5 °F 29.92 in NNW 8.8 mph 11.5 mph 44 % 0.00 in
18:38 40.6 °F 19.8 °F 29.92 in NW 7.8 mph 15.0 mph 43 % 0.00 in
18:43 40.6 °F 19.8 °F 29.92 in West 5.4 mph 11.5 mph 43 % 0.00 in
18:48 40.6 °F 19.8 °F 29.92 in West 5.1 mph 11.5 mph 43 % 0.00 in
18:53 40.5 °F 19.7 °F 29.93 in West 6.4 mph 16.1 mph 43 % 0.00 in
18:58 40.5 °F 19.7 °F 29.93 in West 7.6 mph 11.5 mph 43 % 0.00 in
19:03 40.5 °F 19.7 °F 29.94 in WNW 5.0 mph 17.0 mph 43 % 0.00 in
19:08 40.4 °F 20.2 °F 29.94 in WNW 5.0 mph 12.0 mph 44 % 0.00 in
19:13 40.4 °F 20.2 °F 29.94 in WNW 6.0 mph 13.0 mph 44 % 0.00 in
19:18 40.3 °F 19.5 °F 29.94 in WNW 5.0 mph 18.0 mph 43 % 0.00 in
19:23 40.2 °F 19.5 °F 29.95 in WNW 5.0 mph 15.0 mph 43 % 0.00 in
19:28 40.2 °F 18.9 °F 29.95 in WNW 7.0 mph 14.0 mph 42 % 0.00 in
19:33 40.2 °F 18.9 °F 29.95 in WNW 5.0 mph 13.0 mph 42 % 0.00 in
19:38 40.1 °F 18.8 °F 29.96 in WNW 5.0 mph 16.0 mph 42 % 0.00 in
19:43 40.1 °F 18.3 °F 29.96 in WNW 8.9 mph 13.8 mph 41 % 0.00 in
19:48 40.0 °F 18.7 °F 29.96 in West 8.0 mph 14.0 mph 42 % 0.00 in
19:53 40.0 °F 19.3 °F 29.97 in WNW 3.8 mph 9.2 mph 43 % 0.00 in
19:58 39.9 °F 18.6 °F 29.97 in WNW 9.4 mph 11.5 mph 42 % 0.00 in
20:03 39.8 °F 18.5 °F 29.97 in WNW 5.2 mph 9.2 mph 42 % 0.00 in
20:08 39.7 °F 18.5 °F 29.97 in West 10.8 mph 17.3 mph 42 % 0.00 in
20:13 39.7 °F 19.0 °F 29.97 in West 6.3 mph 9.0 mph 43 % 0.00 in
20:18 39.6 °F 18.9 °F 29.97 in WNW 6.1 mph 10.4 mph 43 % 0.00 in
20:23 39.5 °F 19.4 °F 29.98 in WNW 6.3 mph 11.5 mph 44 % 0.00 in
20:28 39.5 °F 19.4 °F 29.98 in SW 5.3 mph 9.2 mph 44 % 0.00 in
20:33 39.4 °F 18.7 °F 29.98 in WSW 6.7 mph 11.5 mph 43 % 0.00 in
20:38 39.3 °F 19.2 °F 29.99 in WSW 7.0 mph 12.7 mph 44 % 0.00 in
20:43 39.3 °F 18.1 °F 29.99 in West 8.5 mph 16.1 mph 42 % 0.00 in
20:48 39.3 °F 18.6 °F 29.99 in NNW 6.3 mph 12.7 mph 43 % 0.00 in
20:53 39.2 °F 19.1 °F 29.99 in NW 4.5 mph 10.0 mph 44 % 0.00 in
20:59 39.1 °F 17.9 °F 29.99 in NNW 8.8 mph 19.6 mph 42 % 0.00 in
21:04 39.1 °F 19.0 °F 30.00 in West 8.1 mph 13.0 mph 44 % 0.00 in
21:09 39.0 °F 18.4 °F 30.00 in NNW 7.4 mph 13.8 mph 43 % 0.00 in
21:14 38.9 °F 17.7 °F 30.00 in NW 7.1 mph 16.1 mph 42 % 0.00 in
21:19 38.8 °F 17.6 °F 30.01 in NW 10.3 mph 17.3 mph 42 % 0.00 in
21:24 38.7 °F 18.1 °F 30.01 in WNW 8.3 mph 15.0 mph 43 % 0.00 in
21:29 38.6 °F 18.5 °F 30.01 in WNW 6.8 mph 12.7 mph 44 % 0.00 in
21:34 38.6 °F 19.6 °F 30.01 in West 5.1 mph 10.4 mph 46 % 0.00 in
21:39 38.4 °F 18.4 °F 30.01 in NW 4.4 mph 8.1 mph 44 % 0.00 in
21:44 38.3 °F 18.3 °F 30.01 in SW 5.3 mph 11.5 mph 44 % 0.00 in
21:49 38.2 °F 17.6 °F 30.01 in NW 9.8 mph 17.3 mph 43 % 0.00 in
21:54 38.1 °F 17.0 °F 30.02 in WNW 4.8 mph 10.0 mph 42 % 0.00 in
22:00 37.9 °F 17.9 °F 30.02 in WNW 6.6 mph 11.5 mph 44 % 0.00 in
22:05 37.9 °F 18.9 °F 30.02 in WNW 3.6 mph 10.4 mph 46 % 0.00 in
22:10 37.8 °F 19.8 °F 30.03 in NW 5.8 mph 11.5 mph 48 % 0.00 in
22:15 37.7 °F 19.8 °F 30.03 in NW 6.1 mph 11.5 mph 48 % 0.00 in
22:20 37.6 °F 19.2 °F 30.03 in NW 10.6 mph 18.4 mph 47 % 0.00 in
22:25 37.5 °F 18.1 °F 30.03 in North 6.2 mph 15.0 mph 45 % 0.00 in
22:27 37.4 °F 18.5 °F 30.03 in NW 6.1 mph 10.4 mph 46 % 0.00 in
22:32 37.3 °F 17.9 °F 30.03 in NW 4.3 mph 8.1 mph 45 % 0.00 in
22:37 37.2 °F 17.8 °F 30.04 in West 9.5 mph 15.0 mph 45 % 0.00 in
22:43 37.1 °F 17.2 °F 30.03 in WNW 4.4 mph 10.4 mph 44 % 0.00 in
22:48 37.1 °F 17.7 °F 30.04 in SW 9.0 mph 16.1 mph 45 % 0.00 in
22:53 37.0 °F 17.6 °F 30.04 in WSW 8.5 mph 11.5 mph 45 % 0.00 in
22:58 36.9 °F 17.0 °F 30.04 in NNW 8.3 mph 11.5 mph 44 % 0.00 in
23:03 36.8 °F 17.9 °F 30.04 in NW 4.2 mph 8.1 mph 46 % 0.00 in
23:08 36.7 °F 17.8 °F 30.04 in NW 5.1 mph 11.5 mph 46 % 0.00 in
23:13 36.5 °F 17.1 °F 30.04 in West 7.7 mph 11.5 mph 45 % 0.00 in
23:18 36.5 °F 17.1 °F 30.05 in WNW 7.4 mph 12.7 mph 45 % 0.00 in
23:23 36.4 °F 17.1 °F 30.05 in NW 5.1 mph 10.4 mph 45 % 0.00 in
23:28 36.3 °F 17.0 °F 30.05 in West 2.9 mph 13.8 mph 45 % 0.00 in
23:33 36.2 °F 17.4 °F 30.05 in NW 5.9 mph 8.1 mph 46 % 0.00 in
23:38 36.1 °F 17.3 °F 30.05 in WNW 6.6 mph 17.3 mph 46 % 0.00 in
23:43 36.0 °F 17.2 °F 30.05 in WNW 9.0 mph 20.0 mph 46 % 0.00 in
23:48 35.8 °F 17.5 °F 30.05 in NW 4.3 mph 15.0 mph 47 % 0.00 in
23:53 35.8 °F 18.0 °F 30.05 in WNW 6.0 mph 16.0 mph 48 % 0.00 in
23:58 35.7 °F 17.4 °F 30.05 in WNW 5.7 mph 16.1 mph 47 % 0.00 in
Crab Meadow Weather
Compliments of Weather Underground - 3 mb

Script developed by  Jim McMurry - jmcmurry@mwt.net Adapted for the template by  Wim van der Kuil - Leuven-Template.eu

Astronomy: Neptune was discovered in 1846 (over 150 years ago). Since that time it has still yet to make a complete orbit around the sun, because one Neptune year lasts 165 Earth years!